^^
Saratoga-Weather Station Historical Data
Daily Summary for March 7, 2020 Units:  English    Metric   Both
Daily Weekly Monthly Yearly Custom
  High: Low: Average:
Temperature: 74.5 °F 39.4 °F 56.8 °F
Dew Point: 48 °F 35.1 °F 39.9 °F
Humidity: 87% 28% 57%
Wind Speed: 6mph 0mph 0.7mph
Wind Gust: 10mph - -
Wind- - SE
Pressure: 30.2 in 30.1 in -
Precipitation: 0 in    
Historical Graphs
 
 
Tabular Data for March 7, 2020
Time Temperature Dew Point Pressure Wind Wind Speed Wind Gust Humidity Rainfall Rate (Hourly) solar
00:02 46.2 °F 36.7 °F 30.2 in Calm     69% 0 in 0 W/m2
00:07 46.2 °F 36.7 °F 30.2 in Calm     69% 0 in 0 W/m2
00:12 46.2 °F 36.7 °F 30.2 in Calm     69% 0 in 0 W/m2
00:17 46.2 °F 36.7 °F 30.2 in Calm     69% 0 in 0 W/m2
00:22 46 °F 36.9 °F 30.2 in Calm     70% 0 in 0 W/m2
00:27 45.9 °F 36.7 °F 30.2 in Calm     70% 0 in 0 W/m2
00:32 45.9 °F 36.7 °F 30.2 in Calm     70% 0 in 0 W/m2
00:37 45.7 °F 36.9 °F 30.2 in Calm     71% 0 in 0 W/m2
00:42 45.5 °F 36.7 °F 30.2 in Calm     71% 0 in 0 W/m2
00:47 45.1 °F 36.3 °F 30.2 in Calm     71% 0 in 0 W/m2
00:52 45.1 °F 36.7 °F 30.2 in Calm     72% 0 in 0 W/m2
00:57 45.1 °F 36.7 °F 30.2 in Calm   1 mph 72% 0 in 0 W/m2
01:02 45 °F 36.9 °F 30.2 in Calm     73% 0 in 0 W/m2
01:08 45 °F 36.9 °F 30.2 in Calm     73% 0 in 0 W/m2
01:13 44.8 °F 36.7 °F 30.2 in Calm   1 mph 73% 0 in 0 W/m2
01:18 44.6 °F 36.5 °F 30.2 in Calm     73% 0 in 0 W/m2
01:23 44.4 °F 36.3 °F 30.2 in Calm     73% 0 in 0 W/m2
01:28 44.2 °F 36.1 °F 30.2 in Calm     73% 0 in 0 W/m2
01:33 44.2 °F 36.5 °F 30.2 in Calm     74% 0 in 0 W/m2
01:38 44.1 °F 36.3 °F 30.2 in Calm     74% 0 in 0 W/m2
01:43 44.1 °F 36.3 °F 30.2 in Calm     74% 0 in 0 W/m2
01:48 43.9 °F 36.1 °F 30.2 in Calm     74% 0 in 0 W/m2
01:53 43.9 °F 36.1 °F 30.2 in Calm     74% 0 in 0 W/m2
01:58 43.5 °F 35.8 °F 30.2 in Calm     74% 0 in 0 W/m2
02:03 43.3 °F 36 °F 30.2 in Calm     75% 0 in 0 W/m2
02:08 43.2 °F 35.8 °F 30.2 in Calm     75% 0 in 0 W/m2
02:13 43.2 °F 35.8 °F 30.2 in Calm     75% 0 in 0 W/m2
02:18 42.8 °F 35.8 °F 30.2 in Calm     76% 0 in 0 W/m2
02:23 42.6 °F 36 °F 30.2 in Calm     77% 0 in 0 W/m2
02:28 42.4 °F 35.8 °F 30.2 in Calm     77% 0 in 0 W/m2
02:33 42.4 °F 35.8 °F 30.2 in Calm     77% 0 in 0 W/m2
02:38 42.3 °F 36 °F 30.2 in Calm     78% 0 in 0 W/m2
02:43 42.1 °F 35.8 °F 30.2 in Calm     78% 0 in 0 W/m2
02:48 41.9 °F 35.8 °F 30.2 in Calm     79% 0 in 0 W/m2
02:53 41.9 °F 35.8 °F 30.2 in Calm     79% 0 in 0 W/m2
02:58 41.7 °F 35.8 °F 30.2 in Calm     79% 0 in 0 W/m2
03:04 41.5 °F 35.6 °F 30.2 in Calm     79% 0 in 0 W/m2
03:09 41.5 °F 35.6 °F 30.2 in Calm     79% 0 in 0 W/m2
03:14 41.5 °F 35.6 °F 30.2 in Calm     79% 0 in 0 W/m2
03:19 41.4 °F 35.4 °F 30.2 in Calm     79% 0 in 0 W/m2
03:24 41.4 °F 35.4 °F 30.2 in Calm     79% 0 in 0 W/m2
03:29 41.4 °F 35.6 °F 30.2 in SSE 0.9 mph 1 mph 80% 0 in 0 W/m2
03:34 41.4 °F 36 °F 30.2 in SSE 0.9 mph 2 mph 81% 0 in 0 W/m2
03:39 41.5 °F 36.1 °F 30.2 in Calm   2 mph 81% 0 in 0 W/m2
03:44 41.7 °F 36.3 °F 30.2 in Calm     81% 0 in 0 W/m2
03:49 41.7 °F 36 °F 30.2 in Calm   2 mph 80% 0 in 0 W/m2
03:54 41.9 °F 36.1 °F 30.2 in Calm     80% 0 in 0 W/m2
04:00 42.1 °F 36.3 °F 30.2 in North 0.9 mph 1 mph 80% 0 in 0 W/m2
04:05 42.1 °F 36.3 °F 30.2 in Calm     80% 0 in 0 W/m2
04:10 42.1 °F 36.3 °F 30.2 in Calm     80% 0 in 0 W/m2
04:15 41.9 °F 36.1 °F 30.2 in WSW 2 mph 2 mph 80% 0 in 0 W/m2
04:20 41.7 °F 36 °F 30.2 in Calm     80% 0 in 0 W/m2
04:25 41.7 °F 36.3 °F 30.2 in WNW 0.9 mph 1 mph 81% 0 in 0 W/m2
04:30 41.7 °F 36.3 °F 30.2 in Calm   2 mph 81% 0 in 0 W/m2
04:35 41.7 °F 36 °F 30.2 in Calm     80% 0 in 0 W/m2
04:40 41.7 °F 36 °F 30.2 in Calm   1 mph 80% 0 in 0 W/m2
04:45 41.5 °F 36.1 °F 30.2 in Calm     81% 0 in 0 W/m2
04:50 41.5 °F 36.1 °F 30.2 in Calm   1 mph 81% 0 in 0 W/m2
04:55 41.4 °F 36 °F 30.2 in Calm     81% 0 in 0 W/m2
05:00 41.2 °F 35.8 °F 30.2 in Calm     81% 0 in 0 W/m2
05:05 41 °F 35.6 °F 30.2 in Calm     81% 0 in 0 W/m2
05:10 40.8 °F 35.4 °F 30.2 in Calm     81% 0 in 0 W/m2
05:15 40.6 °F 35.6 °F 30.2 in Calm     82% 0 in 0 W/m2
05:20 40.5 °F 35.4 °F 30.2 in Calm     82% 0 in 0 W/m2
05:25 40.5 °F 35.4 °F 30.2 in Calm     82% 0 in 0 W/m2
05:30 40.5 °F 35.8 °F 30.2 in Calm     83% 0 in 0 W/m2
05:35 40.3 °F 35.6 °F 30.2 in Calm     83% 0 in 0 W/m2
05:40 40.3 °F 35.6 °F 30.2 in Calm     83% 0 in 0 W/m2
05:45 40.3 °F 35.6 °F 30.2 in Calm     83% 0 in 0 W/m2
05:50 40.3 °F 35.8 °F 30.2 in Calm     84% 0 in 0 W/m2
05:55 39.9 °F 35.4 °F 30.2 in Calm     84% 0 in 0 W/m2
06:00 39.9 °F 35.4 °F 30.2 in Calm     84% 0 in 0 W/m2
06:05 39.7 °F 35.2 °F 30.2 in Calm     84% 0 in 5 W/m2
06:10 39.6 °F 35.1 °F 30.2 in Calm     84% 0 in 7 W/m2
06:15 39.6 °F 35.4 °F 30.2 in Calm     85% 0 in 9 W/m2
06:20 39.6 °F 35.4 °F 30.2 in Calm     85% 0 in 11 W/m2
06:25 39.4 °F 35.2 °F 30.2 in Calm     85% 0 in 12 W/m2
06:30 39.4 °F 35.2 °F 30.2 in Calm     85% 0 in 14 W/m2
06:35 39.4 °F 35.6 °F 30.2 in Calm     86% 0 in 16 W/m2
06:40 39.6 °F 35.8 °F 30.2 in Calm     86% 0 in 18 W/m2
06:45 39.6 °F 36 °F 30.2 in Calm     87% 0 in 19 W/m2
06:50 39.7 °F 36.1 °F 30.2 in Calm     87% 0 in 21 W/m2
06:55 39.9 °F 36.3 °F 30.2 in Calm     87% 0 in 23 W/m2
07:00 40.3 °F 36.7 °F 30.2 in Calm     87% 0 in 23 W/m2
07:05 40.5 °F 36.7 °F 30.2 in Calm     86% 0 in 25 W/m2
07:10 40.8 °F 37 °F 30.2 in Calm     86% 0 in 26 W/m2
07:15 41.2 °F 37.4 °F 30.2 in Calm   1 mph 86% 0 in 26 W/m2
07:20 41.5 °F 37.6 °F 30.2 in Calm     86% 0 in 28 W/m2
07:25 42.3 °F 38.1 °F 30.2 in Calm   1 mph 85% 0 in 28 W/m2
07:30 42.4 °F 38.3 °F 30.2 in Calm     85% 0 in 30 W/m2
07:35 43 °F 38.5 °F 30.2 in WNW 2 mph 2 mph 84% 0 in 30 W/m2
07:40 43.3 °F 38.5 °F 30.2 in Calm     83% 0 in 32 W/m2
07:45 43.7 °F 38.3 °F 30.2 in Calm     81% 0 in 54 W/m2
07:50 44.4 °F 37.6 °F 30.2 in WNW 0.9 mph 1 mph 77% 0 in 37 W/m2
07:55 45.1 °F 37.9 °F 30.2 in Calm     76% 0 in 232 W/m2
08:00 45.7 °F 37.9 °F 30.2 in Calm     74% 0 in 253 W/m2
08:05 46.8 °F 38.3 °F 30.2 in Calm   1 mph 72% 0 in 160 W/m2
08:10 47.8 °F 38.8 °F 30.2 in Calm   1 mph 71% 0 in 283 W/m2
08:15 48.7 °F 39.4 °F 30.2 in Calm   1 mph 70% 0 in 292 W/m2
08:20 49.8 °F 39.7 °F 30.2 in Calm     68% 0 in 308 W/m2
08:25 50.5 °F 39.6 °F 30.2 in NNW 2 mph 2 mph 66% 0 in 320 W/m2
08:30 50.9 °F 39.6 °F 30.2 in Calm     65% 0 in 336 W/m2
08:35 51.1 °F 39.7 °F 30.2 in Calm   3 mph 65% 0 in 348 W/m2
08:40 51.3 °F 39.6 °F 30.2 in Calm   2 mph 64% 0 in 364 W/m2
08:45 51.6 °F 39.4 °F 30.2 in NNE 2 mph 3 mph 63% 0 in 376 W/m2
08:50 52 °F 40.1 °F 30.2 in Calm     64% 0 in 390 W/m2
08:55 52.5 °F 40.3 °F 30.2 in ENE 0.9 mph 3 mph 63% 0 in 404 W/m2
09:00 53.1 °F 40.5 °F 30.2 in NE 0.9 mph 2 mph 62% 0 in 417 W/m2
09:05 53.4 °F 40.3 °F 30.2 in NE 0.9 mph 1 mph 61% 0 in 432 W/m2
09:10 53.8 °F 41 °F 30.2 in East 0.9 mph 1 mph 62% 0 in 446 W/m2
09:15 54 °F 40.8 °F 30.2 in Calm   2 mph 61% 0 in 457 W/m2
09:20 54.5 °F 40.8 °F 30.2 in NNE 0.9 mph 3 mph 60% 0 in 469 W/m2
09:25 54.9 °F 40.8 °F 30.2 in Calm   2 mph 59% 0 in 482 W/m2
09:30 55.6 °F 40.1 °F 30.2 in Calm   3 mph 56% 0 in 490 W/m2
09:35 56.1 °F 39.7 °F 30.2 in NE 0.9 mph 2 mph 54% 0 in 508 W/m2
09:40 56.8 °F 39.9 °F 30.2 in NNE 2 mph 2 mph 53% 0 in 520 W/m2
09:45 57.2 °F 40.3 °F 30.2 in Calm   2 mph 53% 0 in 534 W/m2
09:50 57.4 °F 39.4 °F 30.2 in ENE 2 mph 3 mph 51% 0 in 545 W/m2
09:55 57.6 °F 39.6 °F 30.2 in ESE 0.9 mph 2 mph 51% 0 in 557 W/m2
10:00 57.9 °F 39.9 °F 30.2 in East 2.9 mph 3 mph 51% 0 in 568 W/m2
10:05 58.5 °F 39.9 °F 30.2 in NE 2 mph 2 mph 50% 0 in 563 W/m2
10:11 58.6 °F 40.6 °F 30.2 in ESE 2.9 mph 4 mph 51% 0 in 113 W/m2
10:16 58.8 °F 39.7 °F 30.2 in North 0.9 mph 2 mph 49% 0 in 601 W/m2
10:21 59.2 °F 41.5 °F 30.2 in East 2 mph 6 mph 52% 0 in 612 W/m2
10:26 59.5 °F 40.3 °F 30.2 in ENE 0.9 mph 3 mph 49% 0 in 624 W/m2
10:31 59.5 °F 40.8 °F 30.2 in WSW 0.9 mph 3 mph 50% 0 in 633 W/m2
10:36 60.1 °F 40.8 °F 30.2 in East 0.9 mph 4 mph 49% 0 in 645 W/m2
10:41 60.6 °F 41.4 °F 30.2 in ESE 0.9 mph 4 mph 49% 0 in 654 W/m2
10:46 61.3 °F 42.1 °F 30.2 in ESE 2 mph 4 mph 49% 0 in 666 W/m2
10:51 61.9 °F 42.4 °F 30.2 in East 2 mph 2 mph 49% 0 in 677 W/m2
10:56 62.2 °F 41.7 °F 30.2 in ENE 0.9 mph 3 mph 47% 0 in 684 W/m2
11:01 61.9 °F 40.8 °F 30.2 in NE 4 mph 4 mph 46% 0 in 691 W/m2
11:06 61.9 °F 41.4 °F 30.2 in NNE 2 mph 4 mph 47% 0 in 703 W/m2
11:11 62.2 °F 42.3 °F 30.2 in SE 2.9 mph 3 mph 48% 0 in 708 W/m2
11:16 63 °F 41.9 °F 30.2 in East 0.9 mph 2 mph 46% 0 in 719 W/m2
11:21 63.3 °F 41.5 °F 30.2 in NNE 0.9 mph 8 mph 45% 0 in 726 W/m2
11:26 63.5 °F 41.7 °F 30.2 in ESE 0.9 mph 3 mph 45% 0 in 733 W/m2
11:31 63.7 °F 41.9 °F 30.2 in East 4 mph 8 mph 45% 0 in 740 W/m2
11:36 63.7 °F 41.9 °F 30.2 in ESE 4 mph 4 mph 45% 0 in 747 W/m2
11:41 64.2 °F 42.4 °F 30.2 in ESE 2 mph 5 mph 45% 0 in 754 W/m2
11:46 64.2 °F 42.4 °F 30.2 in ENE 0.9 mph 4 mph 45% 0 in 761 W/m2
11:51 64 °F 42.8 °F 30.2 in SE 2 mph 4 mph 46% 0 in 766 W/m2
11:56 64 °F 42.3 °F 30.2 in Calm   4 mph 45% 0 in 772 W/m2
12:01 63.9 °F 43.7 °F 30.2 in ENE 2.9 mph 4 mph 48% 0 in 775 W/m2
12:06 64 °F 43.3 °F 30.2 in North 2 mph 7 mph 47% 0 in 780 W/m2
12:11 64.6 °F 42.8 °F 30.2 in Calm   4 mph 45% 0 in 789 W/m2
12:16 64.8 °F 42.3 °F 30.2 in NNW 0.9 mph 1 mph 44% 0 in 789 W/m2
12:21 64.9 °F 43.2 °F 30.2 in NE 0.9 mph 2 mph 45% 0 in 802 W/m2
12:26 65.8 °F 40.1 °F 30.2 in NE 0.9 mph 5 mph 39% 0 in 807 W/m2
12:31 66.2 °F 42.4 °F 30.2 in East 4 mph 5 mph 42% 0 in 810 W/m2
12:36 66.4 °F 42.6 °F 30.2 in NNE 0.9 mph 3 mph 42% 0 in 812 W/m2
12:41 66.6 °F 40.1 °F 30.2 in SE 0.9 mph 4 mph 38% 0 in 816 W/m2
12:47 66.7 °F 40.3 °F 30.2 in Calm   7 mph 38% 0 in 824 W/m2
12:52 67.1 °F 40.6 °F 30.2 in East 2.9 mph 4 mph 38% 0 in 828 W/m2
12:57 67.3 °F 41.5 °F 30.2 in ESE 2.9 mph 8 mph 39% 0 in 817 W/m2
13:02 66.9 °F 41.2 °F 30.2 in South 0.9 mph 2 mph 39% 0 in 814 W/m2
13:07 67.3 °F 39.4 °F 30.2 in North 2 mph 7 mph 36% 0 in 814 W/m2
13:12 67.5 °F 39.6 °F 30.2 in SSE 2.9 mph 4 mph 36% 0 in 816 W/m2
13:17 67.6 °F 42.4 °F 30.2 in ENE 4 mph 4 mph 40% 0 in 817 W/m2
13:22 67.8 °F 41.9 °F 30.2 in WSW 2 mph 3 mph 39% 0 in 821 W/m2
13:27 68 °F 42.1 °F 30.2 in NNE 0.9 mph 3 mph 39% 0 in 816 W/m2
13:32 68.5 °F 41.9 °F 30.2 in North 2.9 mph 10 mph 38% 0 in 807 W/m2
13:37 68.5 °F 39.7 °F 30.2 in ENE 2.9 mph 9 mph 35% 0 in 830 W/m2
13:42 68.7 °F 39.9 °F 30.2 in NNE 2 mph 10 mph 35% 0 in 835 W/m2
13:47 68.7 °F 39.2 °F 30.2 in ESE 2 mph 3 mph 34% 0 in 831 W/m2
13:52 68.7 °F 42.1 °F 30.2 in East 2.9 mph 5 mph 38% 0 in 828 W/m2
13:57 68.9 °F 39.4 °F 30.2 in NNW 2 mph 3 mph 34% 0 in 800 W/m2
14:02 68.4 °F 38.8 °F 30.2 in ESE 0.9 mph 3 mph 34% 0 in 816 W/m2
14:07 68.4 °F 40.3 °F 30.2 in NNE 0.9 mph 4 mph 36% 0 in 817 W/m2
14:12 68.5 °F 39.7 °F 30.2 in ENE 4.9 mph 9 mph 35% 0 in 807 W/m2
14:17 69.1 °F 41 °F 30.2 in ESE 2 mph 3 mph 36% 0 in 821 W/m2
14:22 69.6 °F 38.5 °F 30.2 in SE 2 mph 7 mph 32% 0 in 779 W/m2
14:27 69.6 °F 37.6 °F 30.2 in West 2.9 mph 4 mph 31% 0 in 800 W/m2
14:32 69.3 °F 38.1 °F 30.2 in Calm   3 mph 32% 0 in 809 W/m2
14:37 69.4 °F 41.4 °F 30.2 in ENE 2 mph 2 mph 36% 0 in 796 W/m2
14:42 70.2 °F 38.8 °F 30.2 in NNW 2 mph 4 mph 32% 0 in 795 W/m2
14:48 70.3 °F 38.3 °F 30.2 in NE 2.9 mph 4 mph 31% 0 in 789 W/m2
14:53 70.3 °F 37.4 °F 30.2 in SSE 2 mph 4 mph 30% 0 in 777 W/m2
14:58 70.2 °F 38.8 °F 30.2 in ENE 0.9 mph 6 mph 32% 0 in 786 W/m2
15:03 70.5 °F 38.5 °F 30.2 in NNE 4 mph 6 mph 31% 0 in 772 W/m2
15:08 70.7 °F 38.7 °F 30.2 in ESE 4 mph 9 mph 31% 0 in 779 W/m2
15:13 70.3 °F 37.4 °F 30.2 in ENE 4 mph 5 mph 30% 0 in 747 W/m2
15:18 70.3 °F 37.4 °F 30.2 in ENE 6 mph 6 mph 30% 0 in 719 W/m2
15:23 70.5 °F 38.5 °F 30.2 in SW 2 mph 4 mph 31% 0 in 687 W/m2
15:28 70.9 °F 40.3 °F 30.2 in ENE 0.9 mph 4 mph 33% 0 in 754 W/m2
15:33 71.2 °F 39 °F 30.2 in NNE 0.9 mph 4 mph 31% 0 in 715 W/m2
15:38 71.4 °F 40.1 °F 30.1 in ENE 2.9 mph 5 mph 32% 0 in 694 W/m2
15:43 71.2 °F 39.9 °F 30.1 in SE 2.9 mph 5 mph 32% 0 in 691 W/m2
15:48 71.2 °F 39.9 °F 30.1 in WNW 0.9 mph 9 mph 32% 0 in 675 W/m2
15:53 71.6 °F 39.4 °F 30.1 in ENE 4 mph 4 mph 31% 0 in 677 W/m2
15:58 72 °F 39.7 °F 30.1 in SE 0.9 mph 3 mph 31% 0 in 701 W/m2
16:03 72.1 °F 39.9 °F 30.1 in East 0.9 mph 4 mph 31% 0 in 679 W/m2
16:08 72.3 °F 38.3 °F 30.1 in ESE 0.9 mph 3 mph 29% 0 in 645 W/m2
16:13 72.3 °F 41.5 °F 30.1 in SW 0.9 mph 3 mph 33% 0 in 587 W/m2
16:18 72.7 °F 40.3 °F 30.1 in Calm   1 mph 31% 0 in 608 W/m2
16:23 72.3 °F 39.2 °F 30.1 in SSE 0.9 mph 4 mph 30% 0 in 643 W/m2
16:28 72.7 °F 41.2 °F 30.1 in NE 2.9 mph 6 mph 32% 0 in 605 W/m2
16:33 73 °F 40.6 °F 30.1 in South 0.9 mph 4 mph 31% 0 in 612 W/m2
16:38 72.9 °F 38.7 °F 30.1 in ENE 4 mph 5 mph 29% 0 in 601 W/m2
16:43 72.9 °F 40.5 °F 30.1 in SE 0.9 mph 6 mph 31% 0 in 596 W/m2
16:48 73 °F 39.7 °F 30.1 in Calm   1 mph 30% 0 in 599 W/m2
16:53 73.2 °F 39.9 °F 30.1 in SE 0.9 mph 3 mph 30% 0 in 584 W/m2
16:58 73.4 °F 39.2 °F 30.1 in NNE 0.9 mph 5 mph 29% 0 in 555 W/m2
17:03 73.2 °F 39 °F 30.1 in ESE 0.9 mph 7 mph 29% 0 in 568 W/m2
17:08 72.9 °F 38.7 °F 30.1 in NNW 2 mph 3 mph 29% 0 in 555 W/m2
17:13 72.9 °F 40.5 °F 30.1 in South 0.9 mph 2 mph 31% 0 in 533 W/m2
17:18 72.9 °F 39.6 °F 30.1 in ESE 2.9 mph 4 mph 30% 0 in 489 W/m2
17:23 73 °F 38.8 °F 30.1 in WNW 2 mph 2 mph 29% 0 in 526 W/m2
17:28 73.2 °F 41.5 °F 30.1 in Calm   2 mph 32% 0 in 497 W/m2
17:33 73.6 °F 38.5 °F 30.1 in SE 2 mph 5 mph 28% 0 in 490 W/m2
17:38 73.6 °F 41.9 °F 30.1 in Calm   7 mph 32% 0 in 473 W/m2
17:43 73.6 °F 41.9 °F 30.1 in SW 0.9 mph 2 mph 32% 0 in 462 W/m2
17:48 73.9 °F 40.5 °F 30.1 in East 2 mph 2 mph 30% 0 in 431 W/m2
17:53 74.1 °F 39.9 °F 30.1 in East 0.9 mph 2 mph 29% 0 in 434 W/m2
17:58 74.5 °F 41.9 °F 30.1 in Calm     31% 0 in 424 W/m2
18:04 74.5 °F 41 °F 30.1 in ENE 2.9 mph 3 mph 30% 0 in 408 W/m2
18:09 73.9 °F 40.5 °F 30.1 in NE 2.9 mph 3 mph 30% 0 in 181 W/m2
18:14 73 °F 39.7 °F 30.1 in NNW 0.9 mph 4 mph 30% 0 in 156 W/m2
18:19 72.5 °F 41.7 °F 30.1 in ESE 2.9 mph 3 mph 33% 0 in 197 W/m2
18:24 72.3 °F 42.4 °F 30.1 in Calm   1 mph 34% 0 in 299 W/m2
18:29 72.7 °F 42.6 °F 30.1 in Calm   2 mph 34% 0 in 285 W/m2
18:34 72.9 °F 44.4 °F 30.1 in Calm     36% 0 in 220 W/m2
18:39 72.9 °F 41.4 °F 30.1 in Calm   1 mph 32% 0 in 134 W/m2
18:44 72.9 °F 45.7 °F 30.1 in WNW 0.9 mph 1 mph 38% 0 in 100 W/m2
18:49 72 °F 45.7 °F 30.1 in South 0.9 mph 1 mph 39% 0 in 97 W/m2
18:54 71.1 °F 48 °F 30.1 in South 0.9 mph 2 mph 44% 0 in 100 W/m2
18:59 70.2 °F 47.8 °F 30.1 in Calm   1 mph 45% 0 in 105 W/m2
19:04 69.4 °F 46.6 °F 30.1 in South 0.9 mph 2 mph 44% 0 in 109 W/m2
19:09 68.7 °F 45.3 °F 30.1 in Calm   2 mph 43% 0 in 113 W/m2
19:14 68.5 °F 43.3 °F 30.1 in Calm   1 mph 40% 0 in 109 W/m2
19:19 68.4 °F 45 °F 30.1 in Calm   2 mph 43% 0 in 100 W/m2
19:24 68.4 °F 42.4 °F 30.1 in NW 0.9 mph 1 mph 39% 0 in 97 W/m2
19:29 68.2 °F 45.5 °F 30.1 in WNW 2 mph 2 mph 44% 0 in 90 W/m2
19:34 68 °F 46.4 °F 30.1 in WNW 0.9 mph 2 mph 46% 0 in 76 W/m2
19:39 67.6 °F 46.8 °F 30.1 in Calm     47% 0 in 74 W/m2
19:44 67.5 °F 47.7 °F 30.1 in Calm   1 mph 49% 0 in 77 W/m2
19:49 66.9 °F 46 °F 30.1 in West 0.9 mph 2 mph 47% 0 in 81 W/m2
19:54 66.6 °F 46.2 °F 30.1 in West 0.9 mph 2 mph 48% 0 in 76 W/m2
19:59 66.4 °F 46 °F 30.1 in West 2 mph 2 mph 48% 0 in 76 W/m2
20:04 66 °F 46.4 °F 30.1 in Calm   1 mph 49% 0 in 69 W/m2
20:09 65.8 °F 46.2 °F 30.1 in SW 0.9 mph 2 mph 49% 0 in 54 W/m2
20:14 65.5 °F 45.3 °F 30.1 in Calm     48% 0 in 47 W/m2
20:19 65.1 °F 46.6 °F 30.1 in Calm     51% 0 in 40 W/m2
20:24 64.9 °F 45.9 °F 30.1 in SW 0.9 mph 1 mph 50% 0 in 35 W/m2
20:29 64.2 °F 45.7 °F 30.1 in SW 0.9 mph 1 mph 51% 0 in 30 W/m2
20:35 63.9 °F 45.3 °F 30.1 in SW 0.9 mph 2 mph 51% 0 in 25 W/m2
20:40 63.3 °F 45.3 °F 30.1 in SW 0.9 mph 1 mph 52% 0 in 19 W/m2
20:45 63 °F 45.1 °F 30.1 in Calm   1 mph 52% 0 in 16 W/m2
20:50 62.8 °F 45.3 °F 30.1 in Calm     53% 0 in 9 W/m2
20:55 62.2 °F 45 °F 30.1 in Calm     53% 0 in 5 W/m2
21:00 61.9 °F 44.6 °F 30.1 in Calm     53% 0 in 0 W/m2
21:05 61.5 °F 44.8 °F 30.1 in Calm     54% 0 in 0 W/m2
21:10 61.2 °F 44.8 °F 30.1 in Calm     55% 0 in 0 W/m2
21:15 60.6 °F 44.4 °F 30.1 in Calm     55% 0 in 0 W/m2
21:20 60.4 °F 44.2 °F 30.1 in Calm     55% 0 in 0 W/m2
21:25 60.1 °F 44.4 °F 30.1 in Calm     56% 0 in 0 W/m2
21:30 59.5 °F 43.9 °F 30.1 in Calm     56% 0 in 0 W/m2
21:35 59.2 °F 43.5 °F 30.1 in Calm     56% 0 in 0 W/m2
21:40 58.8 °F 43.2 °F 30.1 in Calm     56% 0 in 0 W/m2
21:45 58.5 °F 43.7 °F 30.1 in Calm     58% 0 in 0 W/m2
21:50 58.3 °F 43.2 °F 30.1 in Calm     57% 0 in 0 W/m2
21:55 57.9 °F 43.7 °F 30.1 in Calm     59% 0 in 0 W/m2
22:00 57.7 °F 43.5 °F 30.1 in Calm     59% 0 in 0 W/m2
22:05 57.6 °F 42.4 °F 30.1 in Calm     57% 0 in 0 W/m2
22:10 57.4 °F 43.2 °F 30.1 in Calm     59% 0 in 0 W/m2
22:15 57 °F 43.3 °F 30.1 in Calm     60% 0 in 0 W/m2
22:20 56.8 °F 43.2 °F 30.1 in Calm     60% 0 in 0 W/m2
22:25 56.7 °F 42.1 °F 30.1 in Calm     58% 0 in 0 W/m2
22:30 56.7 °F 43 °F 30.1 in Calm     60% 0 in 0 W/m2
22:35 56.5 °F 42.8 °F 30.1 in Calm     60% 0 in 0 W/m2
22:40 56.5 °F 42.8 °F 30.1 in Calm     60% 0 in 0 W/m2
22:45 56.3 °F 43 °F 30.1 in Calm     61% 0 in 0 W/m2
22:50 56.1 °F 42.8 °F 30.1 in Calm     61% 0 in 0 W/m2
22:55 55.8 °F 43 °F 30.1 in Calm     62% 0 in 0 W/m2
23:00 55.6 °F 43.2 °F 30.1 in Calm     63% 0 in 0 W/m2
23:05 55.2 °F 43.3 °F 30.1 in Calm     64% 0 in 0 W/m2
23:10 55 °F 43.2 °F 30.1 in Calm     64% 0 in 0 W/m2
23:15 54.9 °F 43 °F 30.1 in Calm     64% 0 in 0 W/m2
23:20 54.7 °F 42.8 °F 30.1 in Calm     64% 0 in 0 W/m2
23:25 54.1 °F 42.3 °F 30.1 in Calm     64% 0 in 0 W/m2
23:31 54 °F 42.1 °F 30.1 in Calm     64% 0 in 0 W/m2
23:36 53.8 °F 41.9 °F 30.1 in Calm     64% 0 in 0 W/m2
23:41 53.4 °F 41.9 °F 30.1 in Calm     65% 0 in 0 W/m2
23:46 53.1 °F 41.5 °F 30.1 in Calm     65% 0 in 0 W/m2
23:51 52.9 °F 41.9 °F 30.1 in Calm     66% 0 in 0 W/m2
23:56 52.7 °F 42.1 °F 30.1 in Calm     67% 0 in 0 W/m2
Juneau County Weather
Compliments of Weather Underground - 2 mb